Alcoa, Tennessee
Current Conditions -  °F | °C
As of 10:53 AM on Friday 31 Oct 2014 (Local Time) from KTYS Reporting Station
Overcast Overcast  
Wind Chill: 47°   Ceiling: 8500
Heat Index: 47°   Visibility: 10mi
Dew Point: 42°   Wind: 0mph
Humidity: 83%   Direction: NA
Pressure: 29.97"   Gusts: NA
Location:  35.77°N, 83.98°W
Report Text: KTYS 311453Z 00000KT 10SM FEW070 OVC085 08/06 A2997 RMK AO2 SLP150 T00830056 58000
Loading
Personal Weather Stations






























Interactive Weather Map
Tropical Storm Tracking
New forecast layout! Learn more

10-Day Weather Forecast

Advertisements
Track Severe Weather on mobile